Terminal Aerodrome Forecast
Issued by NWS

Home | Current Version | Previous Version | Text Only | Print | Product List | Glossary On
Versions: 1 2 3 4 5 6 7 8 9 10 11 12 13 14 15 16 17 18 19 20 21 22 23 24 25
000
FTUS42 KGSP 070741 AAB
TAFGMU
TAF AMD
KGMU 070741Z 0708/0806 27003KT 1/4SM FG VV001
      TEMPO 0711/0713 1SM BR OVC003
     FM071300 33003KT 4SM BR SCT008
     FM071400 03004KT P6SM BKN050
     FM072000 15004KT P6SM BKN035
     FM080200 VRB02KT 6SM BR BKN025=

USA.gov is the U.S. government's official web portal to all federal, state and local government web resources and services.